QFA711 YSSY-YMML
Flight info
| Callsign | QFA711 |
|---|---|
| Flight time | 1h 36m |
| Altitude | 36000 |
| Route | WOL H65 LEECE Q29 ML |
| Aircraft | A320/M-SDE3FGHIRWY/LB1 |
Departure
| Time | 2026-05-04 10:39 |
|---|---|
| Airport | Sydney Kingsford Smith International Airport (YSSY) |
Arrival
| Time | 2026-05-04 12:15 |
|---|---|
| Airport | Melbourne Airport (YMML) |
| Time | Latitude | Longitude | Altitude | Speed | Heading |
|---|---|---|---|---|---|
| 2026-05-04 09:46 | -33.93178 | 151.18022 | 30 ft | 0 kts | 190° |
| 2026-05-04 10:17 | -33.93174 | 151.18023 | 30 ft | 2 kts | 189° |
| 2026-05-04 10:17 | -33.93162 | 151.18025 | 30 ft | 3 kts | 187° |
| 2026-05-04 10:19 | -33.93111 | 151.18026 | 30 ft | 1 kts | 171° |
| 2026-05-04 10:19 | -33.93112 | 151.18025 | 30 ft | 0 kts | 187° |
| 2026-05-04 10:20 | -33.93113 | 151.18025 | 30 ft | 1 kts | 188° |
| 2026-05-04 10:20 | -33.93115 | 151.18023 | 30 ft | 0 kts | 200° |
| 2026-05-04 10:20 | -33.93115 | 151.18021 | 30 ft | 0 kts | 218° |
| 2026-05-04 10:21 | -33.93115 | 151.18016 | 30 ft | 1 kts | 255° |
| 2026-05-04 10:21 | -33.93114 | 151.18015 | 30 ft | 0 kts | 270° |
| 2026-05-04 10:21 | -33.93113 | 151.18014 | 30 ft | 0 kts | 282° |
| 2026-05-04 10:22 | -33.93107 | 151.18006 | 30 ft | 0 kts | 309° |
| 2026-05-04 10:25 | -33.93015 | 151.17644 | 30 ft | 13 kts | 283° |
| 2026-05-04 10:25 | -33.93035 | 151.17544 | 30 ft | 14 kts | 213° |
| 2026-05-04 10:25 | -33.93138 | 151.17529 | 30 ft | 16 kts | 168° |
| 2026-05-04 10:25 | -33.93257 | 151.17558 | 30 ft | 19 kts | 168° |
| 2026-05-04 10:26 | -33.93388 | 151.17591 | 30 ft | 19 kts | 170° |
| 2026-05-04 10:26 | -33.93518 | 151.17593 | 30 ft | 20 kts | 169° |
| 2026-05-04 10:26 | -33.93655 | 151.17643 | 30 ft | 22 kts | 155° |
| 2026-05-04 10:26 | -33.93784 | 151.17700 | 30 ft | 11 kts | 166° |
| 2026-05-04 10:27 | -33.93855 | 151.17751 | 30 ft | 13 kts | 139° |
| 2026-05-04 10:27 | -33.93946 | 151.17793 | 29 ft | 16 kts | 168° |
| 2026-05-04 10:27 | -33.94062 | 151.17823 | 29 ft | 18 kts | 168° |
| 2026-05-04 10:27 | -33.94190 | 151.17856 | 30 ft | 20 kts | 167° |
| 2026-05-04 10:28 | -33.94329 | 151.17893 | 30 ft | 22 kts | 167° |
| 2026-05-04 10:28 | -33.94481 | 151.17895 | 30 ft | 23 kts | 195° |
| 2026-05-04 10:28 | -33.94645 | 151.17915 | 30 ft | 25 kts | 167° |
| 2026-05-04 10:28 | -33.94820 | 151.17960 | 30 ft | 27 kts | 169° |
| 2026-05-04 10:29 | -33.94984 | 151.18004 | 30 ft | 23 kts | 166° |
| 2026-05-04 10:29 | -33.95085 | 151.18048 | 30 ft | 14 kts | 134° |
| 2026-05-04 10:29 | -33.95089 | 151.18170 | 30 ft | 16 kts | 77° |
| 2026-05-04 10:29 | -33.95060 | 151.18315 | 30 ft | 19 kts | 77° |
| 2026-05-04 10:30 | -33.95041 | 151.18442 | 30 ft | 14 kts | 91° |
| 2026-05-04 10:30 | -33.95052 | 151.18487 | 30 ft | 1 kts | 116° |
| 2026-05-04 10:30 | -33.95067 | 151.18505 | 30 ft | 6 kts | 142° |
| 2026-05-04 10:30 | -33.95117 | 151.18548 | 30 ft | 12 kts | 140° |
| 2026-05-04 10:31 | -33.95193 | 151.18633 | 30 ft | 18 kts | 136° |
| 2026-05-04 10:31 | -33.95316 | 151.18719 | 30 ft | 23 kts | 162° |
| 2026-05-04 10:32 | -33.96631 | 151.19063 | 30 ft | 32 kts | 167° |
| 2026-05-04 10:33 | -33.96840 | 151.19068 | 30 ft | 28 kts | 171° |
| 2026-05-04 10:33 | -33.97010 | 151.19114 | 30 ft | 15 kts | 168° |
| 2026-05-04 10:33 | -33.97099 | 151.19141 | 30 ft | 9 kts | 153° |
| 2026-05-04 10:33 | -33.97104 | 151.19145 | 30 ft | 0 kts | 145° |
| 2026-05-04 10:34 | -33.97114 | 151.19156 | 30 ft | 3 kts | 133° |
| 2026-05-04 10:34 | -33.97124 | 151.19194 | 30 ft | 6 kts | 94° |
| 2026-05-04 10:34 | -33.97115 | 151.19258 | 29 ft | 1 kts | 77° |
| 2026-05-04 10:35 | -33.97115 | 151.19259 | 29 ft | 1 kts | 77° |
| 2026-05-04 10:35 | -33.97109 | 151.19291 | 28 ft | 7 kts | 77° |
| 2026-05-04 10:36 | -33.97074 | 151.19361 | 27 ft | 11 kts | 26° |
| 2026-05-04 10:36 | -33.97041 | 151.19365 | 25 ft | 0 kts | 353° |
| 2026-05-04 10:37 | -33.97031 | 151.19364 | 25 ft | 6 kts | 352° |
| 2026-05-04 10:39 | -33.92890 | 151.20445 | 2038 ft | 173 kts | 73° |
| 2026-05-04 10:39 | -33.93083 | 151.21989 | 2437 ft | 203 kts | 109° |
| 2026-05-04 10:39 | -33.93668 | 151.23580 | 3027 ft | 208 kts | 100° |
| 2026-05-04 10:40 | -33.93728 | 151.25270 | 3663 ft | 201 kts | 78° |
| 2026-05-04 10:40 | -33.93672 | 151.26946 | 4423 ft | 200 kts | 81° |
| 2026-05-04 10:40 | -33.93639 | 151.28697 | 4804 ft | 221 kts | 82° |
| 2026-05-04 10:40 | -33.93599 | 151.30608 | 4978 ft | 254 kts | 82° |
| 2026-05-04 10:41 | -33.93546 | 151.32853 | 5010 ft | 277 kts | 83° |
| 2026-05-04 10:41 | -33.93496 | 151.35186 | 5033 ft | 281 kts | 83° |
| 2026-05-04 10:41 | -33.93452 | 151.37318 | 5028 ft | 282 kts | 83° |
| 2026-05-04 10:41 | -33.93401 | 151.39565 | 5026 ft | 281 kts | 83° |
| 2026-05-04 10:42 | -33.93344 | 151.41884 | 5026 ft | 281 kts | 83° |
| 2026-05-04 10:42 | -33.93279 | 151.44230 | 5026 ft | 282 kts | 83° |
| 2026-05-04 10:42 | -33.93211 | 151.46589 | 5023 ft | 282 kts | 83° |
| 2026-05-04 10:42 | -33.93168 | 151.48946 | 5020 ft | 282 kts | 89° |
| 2026-05-04 10:43 | -33.93723 | 151.51232 | 5022 ft | 292 kts | 116° |
| 2026-05-04 10:44 | -34.01983 | 151.65427 | 7620 ft | 308 kts | 123° |
| 2026-05-04 10:45 | -34.03202 | 151.67561 | 8558 ft | 311 kts | 123° |
| 2026-05-04 10:45 | -34.04520 | 151.69643 | 9462 ft | 316 kts | 135° |
| 2026-05-04 10:45 | -34.06368 | 151.71097 | 10237 ft | 325 kts | 159° |
| 2026-05-04 10:45 | -34.08635 | 151.71643 | 10533 ft | 343 kts | 184° |
| 2026-05-04 10:46 | -34.10984 | 151.71085 | 11103 ft | 347 kts | 206° |
| 2026-05-04 10:46 | -34.13032 | 151.69606 | 11869 ft | 343 kts | 226° |
| 2026-05-04 10:46 | -34.14538 | 151.67422 | 12692 ft | 337 kts | 244° |
| 2026-05-04 10:46 | -34.15717 | 151.64959 | 13530 ft | 341 kts | 245° |
| 2026-05-04 10:47 | -34.16892 | 151.62459 | 14343 ft | 344 kts | 246° |
| 2026-05-04 10:47 | -34.18081 | 151.59924 | 15097 ft | 349 kts | 246° |
| 2026-05-04 10:47 | -34.19272 | 151.57394 | 15829 ft | 353 kts | 246° |
| 2026-05-04 10:47 | -34.20490 | 151.54811 | 16571 ft | 356 kts | 246° |
| 2026-05-04 10:49 | -34.29315 | 151.36051 | 21724 ft | 375 kts | 246° |
| 2026-05-04 10:49 | -34.30611 | 151.33290 | 22479 ft | 379 kts | 247° |
| 2026-05-04 10:50 | -34.31910 | 151.30507 | 23280 ft | 381 kts | 247° |
| 2026-05-04 10:51 | -34.41288 | 151.10404 | 27502 ft | 403 kts | 247° |
| 2026-05-04 10:52 | -34.42669 | 151.07434 | 28051 ft | 407 kts | 247° |
| 2026-05-04 10:52 | -34.44062 | 151.04437 | 28589 ft | 410 kts | 247° |
| 2026-05-04 10:52 | -34.45467 | 151.01415 | 29149 ft | 412 kts | 249° |
| 2026-05-04 10:54 | -34.55465 | 150.79848 | 32576 ft | 418 kts | 247° |
| 2026-05-04 10:54 | -34.57110 | 150.76914 | 33172 ft | 421 kts | 242° |
| 2026-05-04 10:56 | -34.68914 | 150.57342 | 36054 ft | 405 kts | 243° |
| 2026-05-04 10:56 | -34.70567 | 150.54582 | 36048 ft | 403 kts | 243° |
| 2026-05-04 10:57 | -34.73866 | 150.49077 | 36060 ft | 403 kts | 243° |
| 2026-05-04 10:57 | -34.77162 | 150.43571 | 36056 ft | 403 kts | 243° |
| 2026-05-04 10:58 | -34.80469 | 150.38049 | 36067 ft | 404 kts | 243° |
| 2026-05-04 10:58 | -34.83775 | 150.32504 | 36068 ft | 405 kts | 242° |
| 2026-05-04 10:59 | -34.87085 | 150.26956 | 36079 ft | 405 kts | 243° |
| 2026-05-04 10:59 | -34.90396 | 150.21408 | 36065 ft | 405 kts | 243° |
| 2026-05-04 11:00 | -34.93704 | 150.15843 | 36091 ft | 405 kts | 243° |
| 2026-05-04 11:02 | -35.06918 | 149.93506 | 36108 ft | 406 kts | 243° |
| 2026-05-04 11:05 | -35.31072 | 149.52317 | 36132 ft | 407 kts | 243° |
| 2026-05-04 11:06 | -35.34364 | 149.46672 | 36127 ft | 407 kts | 244° |
| 2026-05-04 11:06 | -35.38186 | 149.40105 | 36125 ft | 407 kts | 243° |
| 2026-05-04 11:10 | -35.60624 | 149.01273 | 36137 ft | 408 kts | 244° |
| 2026-05-04 11:12 | -35.73694 | 148.78464 | 36138 ft | 409 kts | 244° |
| 2026-05-04 11:12 | -35.76963 | 148.72743 | 36126 ft | 409 kts | 244° |
| 2026-05-04 11:13 | -35.80241 | 148.66969 | 36121 ft | 408 kts | 244° |
| 2026-05-04 11:13 | -35.83474 | 148.61276 | 36117 ft | 408 kts | 244° |
| 2026-05-04 11:14 | -35.86729 | 148.55534 | 36131 ft | 409 kts | 244° |
| 2026-05-04 11:16 | -35.99721 | 148.32488 | 36124 ft | 409 kts | 244° |
| 2026-05-04 11:16 | -36.02960 | 148.26690 | 36112 ft | 410 kts | 244° |
| 2026-05-04 11:17 | -36.06208 | 148.20889 | 36109 ft | 411 kts | 244° |
| 2026-05-04 11:19 | -36.19234 | 147.97587 | 36111 ft | 412 kts | 243° |
| 2026-05-04 11:19 | -36.22492 | 147.91746 | 36129 ft | 412 kts | 244° |
| 2026-05-04 11:20 | -36.25748 | 147.85896 | 36125 ft | 412 kts | 244° |
| 2026-05-04 11:20 | -36.28969 | 147.80096 | 36109 ft | 411 kts | 243° |
| 2026-05-04 11:22 | -36.41884 | 147.56715 | 36113 ft | 410 kts | 243° |
| 2026-05-04 11:23 | -36.45096 | 147.50859 | 36094 ft | 411 kts | 243° |
| 2026-05-04 11:25 | -36.56359 | 147.30300 | 36090 ft | 411 kts | 244° |
| 2026-05-04 11:25 | -36.59567 | 147.24413 | 36079 ft | 412 kts | 244° |
| 2026-05-04 11:27 | -36.74018 | 146.97784 | 36088 ft | 412 kts | 244° |
| 2026-05-04 11:28 | -36.77220 | 146.91862 | 36076 ft | 412 kts | 244° |
| 2026-05-04 11:28 | -36.80420 | 146.85924 | 36097 ft | 412 kts | 244° |
| 2026-05-04 11:29 | -36.83619 | 146.79974 | 36089 ft | 413 kts | 244° |
| 2026-05-04 11:29 | -36.86826 | 146.73992 | 36048 ft | 416 kts | 244° |
| 2026-05-04 11:33 | -37.09460 | 146.32403 | 36043 ft | 393 kts | 228° |
| 2026-05-04 11:33 | -37.11824 | 146.30589 | 36030 ft | 407 kts | 208° |
| 2026-05-04 11:33 | -37.14631 | 146.29801 | 36036 ft | 424 kts | 188° |
| 2026-05-04 11:34 | -37.17601 | 146.30253 | 36043 ft | 439 kts | 166° |
| 2026-05-04 11:34 | -37.20352 | 146.32003 | 36028 ft | 451 kts | 142° |
| 2026-05-04 11:34 | -37.22485 | 146.34897 | 36025 ft | 455 kts | 118° |
| 2026-05-04 11:34 | -37.23673 | 146.38587 | 36023 ft | 448 kts | 95° |
| 2026-05-04 11:35 | -37.23763 | 146.42368 | 36028 ft | 435 kts | 72° |
| 2026-05-04 11:35 | -37.22872 | 146.45890 | 36035 ft | 416 kts | 53° |
| 2026-05-04 11:35 | -37.19875 | 146.52025 | 36030 ft | 411 kts | 47° |
| 2026-05-04 11:36 | -37.16631 | 146.57910 | 36026 ft | 410 kts | 46° |
| 2026-05-04 11:36 | -37.14775 | 146.60524 | 36025 ft | 392 kts | 28° |
| 2026-05-04 11:36 | -37.12512 | 146.62250 | 35985 ft | 373 kts | 12° |
| 2026-05-04 11:37 | -37.10061 | 146.63064 | 36018 ft | 360 kts | 356° |
| 2026-05-04 11:37 | -37.07612 | 146.63002 | 36012 ft | 347 kts | 342° |
| 2026-05-04 11:37 | -37.05343 | 146.62137 | 36026 ft | 337 kts | 329° |
| 2026-05-04 11:37 | -37.03390 | 146.60586 | 36027 ft | 331 kts | 316° |
| 2026-05-04 11:38 | -37.01847 | 146.58472 | 36028 ft | 329 kts | 303° |
| 2026-05-04 11:38 | -37.00796 | 146.55934 | 36026 ft | 330 kts | 291° |
| 2026-05-04 11:38 | -37.00298 | 146.53114 | 36024 ft | 335 kts | 278° |
| 2026-05-04 11:38 | -37.00408 | 146.50176 | 36029 ft | 344 kts | 264° |
| 2026-05-04 11:39 | -37.01160 | 146.47294 | 36026 ft | 356 kts | 251° |
| 2026-05-04 11:39 | -37.02368 | 146.44561 | 36022 ft | 361 kts | 247° |
| 2026-05-04 11:40 | -37.12726 | 146.30541 | 36025 ft | 412 kts | 197° |
| 2026-05-04 11:41 | -37.15636 | 146.30491 | 36022 ft | 430 kts | 174° |
| 2026-05-04 11:41 | -37.18460 | 146.31840 | 36025 ft | 443 kts | 149° |
| 2026-05-04 11:41 | -37.20765 | 146.34454 | 36029 ft | 453 kts | 124° |
| 2026-05-04 11:41 | -37.22191 | 146.37945 | 36026 ft | 449 kts | 100° |
| 2026-05-04 11:42 | -37.22521 | 146.41766 | 36037 ft | 436 kts | 76° |
| 2026-05-04 11:42 | -37.21745 | 146.45323 | 36036 ft | 415 kts | 53° |
| 2026-05-04 11:42 | -37.20250 | 146.48372 | 36032 ft | 407 kts | 45° |
| 2026-05-04 11:43 | -37.16757 | 146.53848 | 36037 ft | 405 kts | 41° |
| 2026-05-04 11:43 | -37.12938 | 146.58875 | 36039 ft | 385 kts | 22° |
| 2026-05-04 11:43 | -37.10568 | 146.60220 | 36022 ft | 367 kts | 5° |
| 2026-05-04 11:44 | -37.08095 | 146.60577 | 36017 ft | 351 kts | 348° |
| 2026-05-04 11:44 | -37.05757 | 146.59965 | 36023 ft | 338 kts | 332° |
| 2026-05-04 11:44 | -37.03747 | 146.58530 | 36024 ft | 331 kts | 317° |
| 2026-05-04 11:44 | -37.02185 | 146.56457 | 36029 ft | 328 kts | 303° |
| 2026-05-04 11:45 | -37.01165 | 146.53907 | 36025 ft | 330 kts | 289° |
| 2026-05-04 11:45 | -37.00772 | 146.51075 | 36033 ft | 335 kts | 275° |
| 2026-05-04 11:45 | -37.01066 | 146.48150 | 36027 ft | 346 kts | 259° |
| 2026-05-04 11:45 | -37.02060 | 146.45355 | 36032 ft | 357 kts | 248° |
| 2026-05-04 11:46 | -37.03349 | 146.42673 | 36028 ft | 362 kts | 245° |
| 2026-05-04 11:46 | -37.06190 | 146.37428 | 36062 ft | 366 kts | 244° |
| 2026-05-04 11:47 | -37.09415 | 146.32467 | 36034 ft | 385 kts | 225° |
| 2026-05-04 11:47 | -37.11839 | 146.30872 | 36022 ft | 405 kts | 204° |
| 2026-05-04 11:47 | -37.14687 | 146.30424 | 36023 ft | 424 kts | 181° |
| 2026-05-04 11:47 | -37.17578 | 146.31357 | 36022 ft | 438 kts | 156° |
| 2026-05-04 11:48 | -37.20068 | 146.33619 | 36042 ft | 450 kts | 131° |
| 2026-05-04 11:48 | -37.21781 | 146.36890 | 36029 ft | 450 kts | 107° |
| 2026-05-04 11:48 | -37.22440 | 146.40670 | 36033 ft | 440 kts | 83° |
| 2026-05-04 11:48 | -37.21973 | 146.44358 | 36039 ft | 421 kts | 59° |
| 2026-05-04 11:49 | -37.20617 | 146.47524 | 36038 ft | 408 kts | 46° |
| 2026-05-04 11:49 | -37.17089 | 146.53081 | 36041 ft | 404 kts | 41° |
| 2026-05-04 11:50 | -37.13331 | 146.58234 | 36037 ft | 388 kts | 25° |
| 2026-05-04 11:50 | -37.11044 | 146.59772 | 36004 ft | 370 kts | 8° |
| 2026-05-04 11:50 | -37.09383 | 146.60278 | 36026 ft | 360 kts | 357° |
| 2026-05-04 11:50 | -37.06188 | 146.59948 | 36020 ft | 341 kts | 335° |
| 2026-05-04 11:51 | -37.04740 | 146.59168 | 36018 ft | 334 kts | 324° |
| 2026-05-04 11:51 | -37.02453 | 146.56697 | 36030 ft | 328 kts | 305° |
| 2026-05-04 11:51 | -37.01336 | 146.54217 | 36029 ft | 329 kts | 291° |
| 2026-05-04 11:51 | -37.00829 | 146.51418 | 35930 ft | 336 kts | 277° |
| 2026-05-04 11:52 | -37.01014 | 146.48484 | 35674 ft | 345 kts | 261° |
| 2026-05-04 11:52 | -37.01549 | 146.46528 | 35395 ft | 362 kts | 252° |
| 2026-05-04 11:52 | -37.03246 | 146.42848 | 34479 ft | 371 kts | 246° |
| 2026-05-04 11:52 | -37.04200 | 146.41012 | 33851 ft | 374 kts | 246° |
| 2026-05-04 11:53 | -37.05667 | 146.38317 | 33126 ft | 372 kts | 245° |
| 2026-05-04 11:53 | -37.07151 | 146.35699 | 32562 ft | 366 kts | 245° |
| 2026-05-04 11:53 | -37.08598 | 146.33161 | 31974 ft | 360 kts | 245° |
| 2026-05-04 11:53 | -37.10009 | 146.30601 | 31396 ft | 354 kts | 246° |
| 2026-05-04 11:55 | -37.19002 | 146.13553 | 28984 ft | 311 kts | 247° |
| 2026-05-04 11:55 | -37.20189 | 146.11289 | 28633 ft | 310 kts | 246° |
| 2026-05-04 11:56 | -37.21368 | 146.09035 | 28279 ft | 308 kts | 246° |
| 2026-05-04 11:56 | -37.22539 | 146.06795 | 27925 ft | 306 kts | 246° |
| 2026-05-04 11:56 | -37.23705 | 146.04568 | 27581 ft | 305 kts | 245° |
| 2026-05-04 11:56 | -37.24868 | 146.02353 | 27277 ft | 303 kts | 245° |
| 2026-05-04 11:57 | -37.26018 | 146.00167 | 26928 ft | 301 kts | 244° |
| 2026-05-04 11:57 | -37.27167 | 145.97982 | 26601 ft | 299 kts | 244° |
| 2026-05-04 11:57 | -37.28309 | 145.95809 | 26275 ft | 297 kts | 244° |
| 2026-05-04 11:57 | -37.29444 | 145.93642 | 25939 ft | 297 kts | 244° |
| 2026-05-04 11:58 | -37.30596 | 145.91434 | 25096 ft | 309 kts | 243° |
| 2026-05-04 11:58 | -37.31799 | 145.89120 | 24008 ft | 323 kts | 240° |
| 2026-05-04 11:58 | -37.33052 | 145.86715 | 22716 ft | 336 kts | 242° |
| 2026-05-04 11:58 | -37.34358 | 145.84222 | 21454 ft | 345 kts | 239° |
| 2026-05-04 11:59 | -37.35683 | 145.81714 | 20485 ft | 343 kts | 241° |
| 2026-05-04 11:59 | -37.36992 | 145.79241 | 19779 ft | 335 kts | 240° |
| 2026-05-04 11:59 | -37.38253 | 145.76855 | 19361 ft | 320 kts | 240° |
| 2026-05-04 11:59 | -37.39459 | 145.74569 | 18962 ft | 307 kts | 240° |
| 2026-05-04 12:00 | -37.40611 | 145.72371 | 18569 ft | 296 kts | 240° |
| 2026-05-04 12:00 | -37.41722 | 145.70244 | 18182 ft | 289 kts | 240° |
| 2026-05-04 12:00 | -37.42827 | 145.68118 | 17774 ft | 290 kts | 240° |
| 2026-05-04 12:00 | -37.43928 | 145.65996 | 17399 ft | 291 kts | 241° |
| 2026-05-04 12:01 | -37.45055 | 145.63820 | 17011 ft | 299 kts | 240° |
| 2026-05-04 12:01 | -37.46239 | 145.61657 | 16617 ft | 300 kts | 238° |
| 2026-05-04 12:02 | -37.53630 | 145.49068 | 14334 ft | 294 kts | 237° |
| 2026-05-04 12:03 | -37.54838 | 145.46986 | 13990 ft | 293 kts | 237° |
| 2026-05-04 12:03 | -37.56041 | 145.44913 | 13599 ft | 292 kts | 238° |
| 2026-05-04 12:03 | -37.57228 | 145.42870 | 13300 ft | 287 kts | 238° |
| 2026-05-04 12:03 | -37.58405 | 145.40840 | 12807 ft | 284 kts | 238° |
| 2026-05-04 12:04 | -37.59548 | 145.38868 | 12355 ft | 273 kts | 238° |
| 2026-05-04 12:04 | -37.60657 | 145.36954 | 11977 ft | 270 kts | 238° |
| 2026-05-04 12:04 | -37.61759 | 145.35045 | 11623 ft | 269 kts | 238° |
| 2026-05-04 12:04 | -37.62857 | 145.33141 | 11267 ft | 268 kts | 238° |
| 2026-05-04 12:05 | -37.63951 | 145.31243 | 10912 ft | 267 kts | 238° |
| 2026-05-04 12:05 | -37.65043 | 145.29351 | 10559 ft | 267 kts | 238° |
| 2026-05-04 12:05 | -37.66138 | 145.27450 | 10196 ft | 267 kts | 238° |
| 2026-05-04 12:05 | -37.67224 | 145.25559 | 9830 ft | 268 kts | 237° |
| 2026-05-04 12:06 | -37.68305 | 145.23687 | 9473 ft | 267 kts | 238° |
| 2026-05-04 12:06 | -37.69396 | 145.21794 | 9112 ft | 265 kts | 238° |
| 2026-05-04 12:06 | -37.70472 | 145.19924 | 8708 ft | 267 kts | 238° |
| 2026-05-04 12:06 | -37.71582 | 145.17990 | 8287 ft | 264 kts | 238° |
| 2026-05-04 12:07 | -37.72648 | 145.16134 | 7650 ft | 260 kts | 238° |
| 2026-05-04 12:07 | -37.73701 | 145.14299 | 7078 ft | 255 kts | 238° |
| 2026-05-04 12:07 | -37.74704 | 145.12557 | 6838 ft | 238 kts | 238° |
| 2026-05-04 12:07 | -37.75662 | 145.10898 | 6598 ft | 231 kts | 238° |
| 2026-05-04 12:08 | -37.76602 | 145.09259 | 6470 ft | 230 kts | 239° |
| 2026-05-04 12:08 | -37.77535 | 145.07626 | 6276 ft | 230 kts | 238° |
| 2026-05-04 12:08 | -37.78463 | 145.05993 | 5872 ft | 234 kts | 238° |
| 2026-05-04 12:08 | -37.79407 | 145.04341 | 5648 ft | 229 kts | 238° |
| 2026-05-04 12:09 | -37.80334 | 145.02727 | 5161 ft | 227 kts | 239° |
| 2026-05-04 12:09 | -37.81183 | 145.01076 | 4664 ft | 220 kts | 249° |
| 2026-05-04 12:09 | -37.81651 | 144.99274 | 4136 ft | 214 kts | 259° |
| 2026-05-04 12:09 | -37.81963 | 144.97447 | 3682 ft | 212 kts | 259° |
| 2026-05-04 12:10 | -37.82273 | 144.95684 | 3621 ft | 199 kts | 259° |
| 2026-05-04 12:10 | -37.82563 | 144.94024 | 3556 ft | 187 kts | 261° |
| 2026-05-04 12:10 | -37.82780 | 144.92453 | 3482 ft | 176 kts | 263° |
| 2026-05-04 12:10 | -37.82961 | 144.90965 | 3402 ft | 166 kts | 263° |
| 2026-05-04 12:11 | -37.83129 | 144.89556 | 3324 ft | 160 kts | 263° |
| 2026-05-04 12:11 | -37.83251 | 144.88163 | 3246 ft | 159 kts | 276° |
| 2026-05-04 12:11 | -37.82729 | 144.86950 | 3166 ft | 168 kts | 316° |
| 2026-05-04 12:11 | -37.81581 | 144.86487 | 2976 ft | 178 kts | 341° |
| 2026-05-04 12:12 | -37.80354 | 144.86265 | 2690 ft | 178 kts | 341° |
| 2026-05-04 12:12 | -37.79157 | 144.86052 | 2436 ft | 166 kts | 342° |
| 2026-05-04 12:12 | -37.78062 | 144.85865 | 2225 ft | 151 kts | 342° |
| 2026-05-04 12:12 | -37.77062 | 144.85691 | 2031 ft | 140 kts | 341° |
| 2026-05-04 12:13 | -37.76128 | 144.85521 | 1859 ft | 132 kts | 340° |
| 2026-05-04 12:14 | -37.69882 | 144.84366 | 663 ft | 130 kts | 343° |
| 2026-05-04 12:15 | -37.68998 | 144.84189 | 483 ft | 128 kts | 343° |
| 2026-05-04 12:15 | -37.68125 | 144.84019 | 371 ft | 119 kts | 342° |
| 2026-05-04 12:15 | -37.67458 | 144.83869 | 368 ft | 73 kts | 353° |
| 2026-05-04 12:15 | -37.67124 | 144.83823 | 382 ft | 24 kts | 360° |
| 2026-05-04 12:16 | -37.66983 | 144.83845 | 386 ft | 23 kts | 11° |
| 2026-05-04 12:16 | -37.66842 | 144.83915 | 391 ft | 20 kts | 24° |
| 2026-05-04 12:16 | -37.66744 | 144.83989 | 389 ft | 15 kts | 48° |
| 2026-05-04 12:16 | -37.66707 | 144.84122 | 394 ft | 18 kts | 80° |
| 2026-05-04 12:17 | -37.66691 | 144.84286 | 394 ft | 20 kts | 82° |
| 2026-05-04 12:17 | -37.66669 | 144.84469 | 398 ft | 22 kts | 82° |
| 2026-05-04 12:17 | -37.66653 | 144.84592 | 400 ft | 13 kts | 81° |
| 2026-05-04 12:17 | -37.66639 | 144.84710 | 402 ft | 9 kts | 81° |
| 2026-05-04 12:18 | -37.66650 | 144.84790 | 402 ft | 11 kts | 133° |
| 2026-05-04 12:18 | -37.66727 | 144.84821 | 398 ft | 10 kts | 163° |
| 2026-05-04 12:18 | -37.66764 | 144.84873 | 398 ft | 9 kts | 83° |
| 2026-05-04 12:18 | -37.66761 | 144.84893 | 397 ft | 3 kts | 80° |
| 2026-05-04 12:19 | -37.66759 | 144.84909 | 397 ft | 1 kts | 82° |
| 2026-05-04 12:19 | -37.66759 | 144.84917 | 400 ft | 0 kts | 82° |